YM Warmth — VROO5 — position and weather

sailwx.info

Track history (hours):
 
Tides and Currents Weather Stations Pressure Air Temp Water Temp Dewpoint Dewpoint Depression Visibility Wind Speed Wind Dir Waves Ship Positions

YM Warmth

Last reported at 2018-Apr-19 16:46 UTC. Time now 2018-Apr-23 03:41 UTC.
Position N 22°18' E 117°12'.

Length 368 m; draft 13.5 m.

Type: Ship (hazmat cat D). MMSI: 477948800.

Date/timePositionNaut miles runAvg speedWind from/ knotsBaromVisibWave heightAir tempDewpointWater temp
2018-Apr-19 16:46N 22°18' E 117°12'619.3
2018-Apr-19 16:26N 22°18' E 117°19'1119.4
2018-Apr-19 15:51N 22°18' E 117°31'1619.4
2018-Apr-19 15:01N 22°18' E 117°49'021.6
2018-Apr-19 15:00N 22°18' E 117°49'1019.1
2018-Apr-19 14:29N 22°17' E 117°60'1119.2
2018-Apr-19 13:56N 22°18' E 118°11'819.2
2018-Apr-19 13:30N 22°18' E 118°20'1019.3
2018-Apr-19 13:00N 22°18' E 118°31'919.2
2018-Apr-19 12:30N 22°17' E 118°41'1518.7
2018-Apr-19 11:41N 22°18' E 118°58'818.7
2018-Apr-19 11:14N 22°18' E 119°07'418.8
2018-Apr-19 11:00N 22°17' E 119°11'4418.5
2018-Apr-19 08:39N 22°28' E 119°57'318.3
2018-Apr-19 08:30N 22°29' E 119°59'713.6
2018-Apr-19 08:00N 22°32' E 120°06'612.1
2018-Apr-19 07:30N 22°33' E 120°13'611.2
2018-Apr-19 07:00N 22°33' E 120°19'1 1.6
2018-Apr-19 06:31N 22°33' E 120°20'0 0.3
2018-Apr-19 05:58N 22°33' E 120°20'0 0.0
2018-Apr-19 05:28N 22°33' E 120°20'0 0.1
2018-Apr-19 04:58N 22°33' E 120°20'0 0.0
2018-Apr-19 04:28N 22°33' E 120°20'0 0.1
2018-Apr-19 03:55N 22°33' E 120°20'0 0.0
2018-Apr-19 03:25N 22°33' E 120°20'0 0.0
2018-Apr-19 02:55N 22°33' E 120°20'0 0.0
2018-Apr-19 02:28N 22°33' E 120°20'0 0.0
2018-Apr-19 01:55N 22°33' E 120°20'0 0.0
2018-Apr-19 01:28N 22°33' E 120°20'0 0.1
2018-Apr-19 00:58N 22°33' E 120°20'0 0.1
2018-Apr-19 00:28N 22°33' E 120°20'0 0.0
2018-Apr-18 23:58N 22°33' E 120°20'0 0.0
2018-Apr-18 23:28N 22°33' E 120°20'0 0.0
2018-Apr-18 22:58N 22°33' E 120°20'0 0.0
2018-Apr-18 22:25N 22°33' E 120°20'0 0.0
2018-Apr-18 21:55N 22°33' E 120°20'0 0.0
2018-Apr-18 21:28N 22°33' E 120°20'0 0.0
2018-Apr-18 20:58N 22°33' E 120°20'0 0.1
2018-Apr-18 20:28N 22°33' E 120°20'0 0.0
2018-Apr-18 19:58N 22°33' E 120°20'0 0.1
2018-Apr-18 19:25N 22°33' E 120°20'0 0.1
2018-Apr-18 18:58N 22°33' E 120°20'0 0.1
2018-Apr-18 18:28N 22°33' E 120°20'0 0.0
2018-Apr-18 17:58N 22°33' E 120°20'0 0.0
2018-Apr-18 17:28N 22°33' E 120°20'0 0.0
2018-Apr-18 17:00N 22°33' E 120°20'1 3.0
2018-Apr-18 16:31N 22°33' E 120°18'3 6.0
2018-Apr-18 16:01N 22°32' E 120°15'1 1.6
2018-Apr-18 15:30N 22°32' E 120°14'1 1.9
2018-Apr-18 15:01N 22°32' E 120°13'2 3.3
2018-Apr-18 14:30N 22°32' E 120°11'5 9.7
2018-Apr-18 14:01N 22°36' E 120°09'611.6
2018-Apr-18 13:30N 22°41' E 120°05'611.7
2018-Apr-18 13:00N 22°45' E 120°01'713.4
2018-Apr-18 12:30N 22°50' E 119°56'917.8
2018-Apr-18 12:00N 22°59' E 119°56'2318.5
2018-Apr-18 10:44N 23°23' E 119°55'718.9
2018-Apr-18 10:23N 23°30' E 119°54'718.9
2018-Apr-18 10:00N 23°36' E 119°55'1019.1
2018-Apr-18 09:29N 23°46' E 119°58'42611.7
2018-Apr-16 21:08N 30°37' E 122°04'0 0.0
2018-Apr-16 20:56N 30°37' E 122°04'3 0.2
2018-Apr-16 04:24N 30°36' E 122°06'  
2018-Apr-12 20:27N 30°46' E 123°48'3955.8
2018-Apr-12 19:45N 31°24' E 123°59'1244.8
2018-Apr-12 19:30N 31°35' E 124°00'28 6.0
2018-Apr-12 14:46N 32°04' E 124°00'412.9
2018-Apr-12 14:26N 32°08' E 124°00'29013.7
2018-Apr-11 17:19N 35°59' E 120°29'1014.0
2018-Apr-11 16:38N 36°02' E 120°18'1 5.1
2018-Apr-11 16:30N 36°02' E 120°17'4 3.3
2018-Apr-11 15:15N 36°00' E 120°12'0 0.0
2018-Apr-11 15:01N 36°00' E 120°12'0 0.0
2018-Apr-11 14:25N 36°00' E 120°12'0 0.0
2018-Apr-11 13:12N 36°00' E 120°12'0 0.1
2018-Apr-11 12:55N 36°00' E 120°12'0 0.1
2018-Apr-11 12:21N 36°00' E 120°12'0 0.1
2018-Apr-11 11:48N 36°00' E 120°12'0 0.1
2018-Apr-11 11:12N 36°00' E 120°12'0 0.0
2018-Apr-11 10:48N 36°00' E 120°12'0 0.0
2018-Apr-11 10:15N 36°00' E 120°12'0 0.0
2018-Apr-11 09:54N 36°00' E 120°12'0 0.0
2018-Apr-11 09:19N 36°00' E 120°12'0 0.0
2018-Apr-11 08:12N 36°00' E 120°12'0 0.0
2018-Apr-11 07:54N 36°00' E 120°12'0 0.0
2018-Apr-11 07:21N 36°00' E 120°12'0 0.0
2018-Apr-11 06:47N 36°00' E 120°12'2 4.4
2018-Apr-11 06:17N 36°02' E 120°14'4 8.2
2018-Apr-11 05:49N 36°02' E 120°19'41512.2
2018-Apr-09 19:55N 34°04' E 128°24'715.3
2018-Apr-09 19:28N 34°08' E 128°31'715.5
2018-Apr-09 19:00N 34°14' E 128°36'815.8
2018-Apr-09 18:30N 34°21' E 128°40'816.0
2018-Apr-09 18:00N 34°27' E 128°46'816.2
2018-Apr-09 17:29N 34°35' E 128°50'816.0
2018-Apr-09 17:00N 34°42' E 128°51'  
Track history (hours):
 
Tides and Currents Weather Stations Pressure Air Temp Water Temp Dewpoint Dewpoint Depression Visibility Wind Speed Wind Dir Waves Ship Positions

YM Warmth

Last reported at 2018-Apr-19 16:46 UTC. Time now 2018-Apr-23 03:41 UTC.
Position N 22°18' E 117°12'.

Length 368 m; draft 13.5 m.

Type: Ship (hazmat cat D). MMSI: 477948800.

Date/timePositionNaut miles runAvg speedWind from/ knotsBaromVisibWave heightAir tempDewpointWater temp
2018-Apr-19 16:46N 22°18' E 117°12'619.3
2018-Apr-19 16:26N 22°18' E 117°19'1119.4
2018-Apr-19 15:51N 22°18' E 117°31'1619.4
2018-Apr-19 15:01N 22°18' E 117°49'021.6
2018-Apr-19 15:00N 22°18' E 117°49'1019.1
2018-Apr-19 14:29N 22°17' E 117°60'1119.2
2018-Apr-19 13:56N 22°18' E 118°11'819.2
2018-Apr-19 13:30N 22°18' E 118°20'1019.3
2018-Apr-19 13:00N 22°18' E 118°31'919.2
2018-Apr-19 12:30N 22°17' E 118°41'1518.7
2018-Apr-19 11:41N 22°18' E 118°58'818.7
2018-Apr-19 11:14N 22°18' E 119°07'418.8
2018-Apr-19 11:00N 22°17' E 119°11'4418.5
2018-Apr-19 08:39N 22°28' E 119°57'318.3
2018-Apr-19 08:30N 22°29' E 119°59'713.6
2018-Apr-19 08:00N 22°32' E 120°06'612.1
2018-Apr-19 07:30N 22°33' E 120°13'611.2
2018-Apr-19 07:00N 22°33' E 120°19'1 1.6
2018-Apr-19 06:31N 22°33' E 120°20'0 0.3
2018-Apr-19 05:58N 22°33' E 120°20'0 0.0
2018-Apr-19 05:28N 22°33' E 120°20'0 0.1
2018-Apr-19 04:58N 22°33' E 120°20'0 0.0
2018-Apr-19 04:28N 22°33' E 120°20'0 0.1
2018-Apr-19 03:55N 22°33' E 120°20'0 0.0
2018-Apr-19 03:25N 22°33' E 120°20'0 0.0
2018-Apr-19 02:55N 22°33' E 120°20'0 0.0
2018-Apr-19 02:28N 22°33' E 120°20'0 0.0
2018-Apr-19 01:55N 22°33' E 120°20'0 0.0
2018-Apr-19 01:28N 22°33' E 120°20'0 0.1
2018-Apr-19 00:58N 22°33' E 120°20'0 0.1
2018-Apr-19 00:28N 22°33' E 120°20'0 0.0
2018-Apr-18 23:58N 22°33' E 120°20'0 0.0
2018-Apr-18 23:28N 22°33' E 120°20'0 0.0
2018-Apr-18 22:58N 22°33' E 120°20'0 0.0
2018-Apr-18 22:25N 22°33' E 120°20'0 0.0
2018-Apr-18 21:55N 22°33' E 120°20'0 0.0
2018-Apr-18 21:28N 22°33' E 120°20'0 0.0
2018-Apr-18 20:58N 22°33' E 120°20'0 0.1
2018-Apr-18 20:28N 22°33' E 120°20'0 0.0
2018-Apr-18 19:58N 22°33' E 120°20'0 0.1
2018-Apr-18 19:25N 22°33' E 120°20'0 0.1
2018-Apr-18 18:58N 22°33' E 120°20'0 0.1
2018-Apr-18 18:28N 22°33' E 120°20'0 0.0
2018-Apr-18 17:58N 22°33' E 120°20'0 0.0
2018-Apr-18 17:28N 22°33' E 120°20'0 0.0
2018-Apr-18 17:00N 22°33' E 120°20'1 3.0
2018-Apr-18 16:31N 22°33' E 120°18'3 6.0
2018-Apr-18 16:01N 22°32' E 120°15'1 1.6
2018-Apr-18 15:30N 22°32' E 120°14'1 1.9
2018-Apr-18 15:01N 22°32' E 120°13'2 3.3
2018-Apr-18 14:30N 22°32' E 120°11'5 9.7
2018-Apr-18 14:01N 22°36' E 120°09'611.6
2018-Apr-18 13:30N 22°41' E 120°05'611.7
2018-Apr-18 13:00N 22°45' E 120°01'713.4
2018-Apr-18 12:30N 22°50' E 119°56'917.8
2018-Apr-18 12:00N 22°59' E 119°56'2318.5
2018-Apr-18 10:44N 23°23' E 119°55'718.9
2018-Apr-18 10:23N 23°30' E 119°54'718.9
2018-Apr-18 10:00N 23°36' E 119°55'1019.1
2018-Apr-18 09:29N 23°46' E 119°58'42611.7
2018-Apr-16 21:08N 30°37' E 122°04'0 0.0
2018-Apr-16 20:56N 30°37' E 122°04'3 0.2
2018-Apr-16 04:24N 30°36' E 122°06'  
2018-Apr-12 20:27N 30°46' E 123°48'3955.8
2018-Apr-12 19:45N 31°24' E 123°59'1244.8
2018-Apr-12 19:30N 31°35' E 124°00'28 6.0
2018-Apr-12 14:46N 32°04' E 124°00'412.9
2018-Apr-12 14:26N 32°08' E 124°00'29013.7
2018-Apr-11 17:19N 35°59' E 120°29'1014.0
2018-Apr-11 16:38N 36°02' E 120°18'1 5.1
2018-Apr-11 16:30N 36°02' E 120°17'4 3.3
2018-Apr-11 15:15N 36°00' E 120°12'0 0.0
2018-Apr-11 15:01N 36°00' E 120°12'0 0.0
2018-Apr-11 14:25N 36°00' E 120°12'0 0.0
2018-Apr-11 13:12N 36°00' E 120°12'0 0.1
2018-Apr-11 12:55N 36°00' E 120°12'0 0.1
2018-Apr-11 12:21N 36°00' E 120°12'0 0.1
2018-Apr-11 11:48N 36°00' E 120°12'0 0.1
2018-Apr-11 11:12N 36°00' E 120°12'0 0.0
2018-Apr-11 10:48N 36°00' E 120°12'0 0.0
2018-Apr-11 10:15N 36°00' E 120°12'0 0.0
2018-Apr-11 09:54N 36°00' E 120°12'0 0.0
2018-Apr-11 09:19N 36°00' E 120°12'0 0.0
2018-Apr-11 08:12N 36°00' E 120°12'0 0.0
2018-Apr-11 07:54N 36°00' E 120°12'0 0.0
2018-Apr-11 07:21N 36°00' E 120°12'0 0.0
2018-Apr-11 06:47N 36°00' E 120°12'2 4.4
2018-Apr-11 06:17N 36°02' E 120°14'4 8.2
2018-Apr-11 05:49N 36°02' E 120°19'41512.2
2018-Apr-09 19:55N 34°04' E 128°24'715.3
2018-Apr-09 19:28N 34°08' E 128°31'715.5
2018-Apr-09 19:00N 34°14' E 128°36'815.8
2018-Apr-09 18:30N 34°21' E 128°40'816.0
2018-Apr-09 18:00N 34°27' E 128°46'816.2
2018-Apr-09 17:29N 34°35' E 128°50'816.0
2018-Apr-09 17:00N 34°42' E 128°51'  

Dump ship's entire track history